KBAF/BAF METAR and TAF weather

Enter ICAO airport designator
Station Type Date Time Source
KBAF METAR 2018/10/21 02:53 UTC NOAA

KBAF 210253Z AUTO 06003KT 10SM FEW070 SCT090 07/07 A2960 RMK AO2 SLP024 T00720067 50001


Station Type Date Time Source
KBAF Decoded METAR 2018/10/21 02:53 UTC NOAA

WESTFIELD BARNES MUNICIPAL, MA, United States (KBAF) 42-10N 072-43W 83M
Oct 20, 2018 - 10:53 PM EDT / 2018.10.21 0253 UTC
Wind: from the ENE (060 degrees) at 3 MPH (3 KT):0
Visibility: 10 mile(s):0
Sky conditions: partly cloudy
Temperature: 45.0 F (7.2 C)
Dew Point: 44.1 F (6.7 C)
Relative Humidity: 96%
Pressure (altimeter): 29.6 in. Hg (1002 hPa)
Pressure tendency: 0.00 inches (0.1 hPa) higher than three hours ago
ob: KBAF 210253Z AUTO 06003KT 10SM FEW070 SCT090 07/07 A2960 RMK AO2 SLP024 T00720067 50001
cycle: 3

Station Type Date Time Source
KBAF TAF 2018/10/20 18:39 UTC NOAA

TAF KBAF 201737Z 2018/2118 27007KT P6SM BKN040 OVC060
FM202000 28008KT P6SM SCT050
FM210100 30003KT P6SM BKN060
FM210400 32004KT P6SM VCSH BKN060
FM210600 32005KT P6SM VCSH BKN025
FM211000 34008KT P6SM VCSH BKN035
FM211200 34009KT P6SM BKN035
FM211400 34011G20KT P6SM SCT060


Example: see airport list